Latest Weather Observations for Lockhart River

IDQ60801

Issued at 9:21 pm EST Thursday 17 January 2019 (issued every 10 minutes, with the page automatically refreshed every 10 minutes)

About weather observations | Map of weather stations | Latest weather observations for QLD | Other Formats
Station Details ID: 028008 Name: LOCKHART RIVER AIRPORT Lat: -12.79 Lon: 143.30 Height: 18.5 m
Data from the previous 72 hours. | See also: Recent months at Lockhart River
Date/Time
EST
Temp
°C
App
Temp
°C
Dew
Point
°C
Rel
Hum
%
Delta-T
°C
Wind Press
QNH
hPa
Press
MSL
hPa
Rain since
9am
mm
Dir  Spd
km/h
Gust
km/h
Spd
kts
Gust
kts
17/09:00pm 27.9 31.6 24.5 82 2.4 SE 13 17 7 9 1008.4 1008.3 10.2
17/08:30pm 28.1 32.0 24.9 83 2.2 SE 13 17 7 9 1008.1 1008.0 10.2
17/08:00pm 27.9 32.1 24.7 83 2.2 SE 11 15 6 8 1007.6 1007.5 10.2
17/07:30pm 28.1 31.6 24.9 83 2.2 SE 15 17 8 9 1007.4 1007.3 10.2
17/07:00pm 28.2 32.2 24.4 80 2.6 ESE 11 17 6 9 1006.9 1006.8 10.2
17/06:30pm 28.2 32.1 24.2 79 2.8 ESE 11 17 6 9 1006.5 1006.4 10.2
17/06:00pm 28.8 32.2 24.1 76 3.3 ESE 13 20 7 11 1006.1 1006.0 10.2
17/05:30pm 29.3 31.4 23.7 72 3.9 ESE 19 28 10 15 1005.8 1005.7 10.2
17/05:00pm 29.3 31.5 24.0 73 3.7 ESE 19 30 10 16 1005.5 1005.4 10.2
17/04:30pm 29.2 31.3 24.7 77 3.1 ESE 22 32 12 17 1005.3 1005.2 10.2
17/04:00pm 30.5 32.7 24.9 72 3.9 ESE 22 37 12 20 1005.1 1005.0 10.2
17/03:30pm 30.2 32.8 24.6 72 3.9 E 19 30 10 16 1005.4 1005.3 10.2
17/03:00pm 30.1 31.7 23.8 69 4.4 ESE 22 32 12 17 1005.7 1005.6 10.2
17/02:30pm 29.6 32.2 24.9 76 3.3 E 20 30 11 16 1006.2 1006.1 10.2
17/02:00pm 29.8 32.4 24.9 75 3.4 ESE 20 30 11 16 1006.3 1006.2 10.2
17/01:30pm 29.4 32.7 26.0 82 2.4 ESE 20 33 11 18 1006.7 1006.6 10.0
17/01:16pm 29.4 32.9 26.0 82 2.4 E 19 28 10 15 1007.1 1007.0 10.0
17/01:00pm 28.3 33.4 26.7 91 1.1 ENE 13 24 7 13 1007.4 1007.3 10.0
17/12:59pm 28.3 33.9 26.9 92 1.0 ENE 11 17 6 9 1007.4 1007.3 10.0
17/12:55pm 28.0 32.9 26.4 91 1.1 ENE 13 20 7 11 1007.5 1007.4 10.0
17/12:38pm 27.7 30.3 25.5 88 1.5 ESE 22 35 12 19 1007.8 1007.7 10.0
17/12:30pm 29.1 32.2 25.7 82 2.4 ESE 20 32 11 17 1008.0 1007.9 9.8
17/12:26pm 29.2 32.8 26.2 84 2.1 E 19 28 10 15 1008.0 1007.9 9.8
17/12:19pm 29.5 32.4 25.9 81 2.6 E 22 39 12 21 1008.0 1007.9 9.6
17/12:00pm 29.1 32.2 26.3 85 2.0 ESE 22 33 12 18 1008.4 1008.3 9.6
17/11:59am 29.0 32.2 25.8 83 2.3 ESE 20 33 11 18 1008.4 1008.3 9.6
17/11:47am 28.8 33.9 27.2 91 1.2 ESE 15 26 8 14 1008.5 1008.4 9.6
17/11:39am 27.1 33.3 26.6 97 0.4 ENE 7 19 4 10 1008.6 1008.5 9.6
17/11:36am 26.7 32.8 26.2 97 0.4 NE 6 9 3 5 1008.6 1008.5 9.6
17/11:30am 26.4 31.6 25.7 96 0.5 NE 9 20 5 11 1008.7 1008.6 9.6
17/11:22am 26.3 29.7 25.3 94 0.7 ESE 17 33 9 18 1008.8 1008.7 9.2
17/11:09am 26.7 28.8 24.7 89 1.4 E 22 41 12 22 1009.4 1009.3 3.8
17/11:03am 28.8 31.8 25.2 81 2.5 E 19 28 10 15 1009.0 1008.9 0.2
17/11:00am 28.9 31.8 25.1 80 2.7 E 19 28 10 15 1009.0 1008.9 0.2
17/10:30am 29.1 31.3 24.9 78 2.9 ESE 22 33 12 18 1009.4 1009.3 0.0
17/10:00am 28.7 32.1 25.3 82 2.4 E 17 28 9 15 1009.7 1009.6 0.0
17/09:30am 27.9 31.2 25.1 85 2.0 E 17 26 9 14 1009.7 1009.6 0.0
17/09:17am 27.9 30.6 25.1 85 2.0 E 20 30 11 16 1009.7 1009.6 0.0
17/09:07am 27.7 31.6 26.1 91 1.1 E 17 28 9 15 1009.6 1009.5 0.0
17/09:00am 27.3 31.0 25.7 91 1.1 E 17 28 9 15 1009.5 1009.4 4.8
17/08:53am 26.9 31.1 25.9 94 0.7 E 15 24 8 13 1009.4 1009.3 4.8
17/08:48am 26.6 30.7 25.7 95 0.6 E 15 28 8 15 1009.3 1009.2 4.8
17/08:34am 26.1 29.4 25.1 94 0.7 E 17 32 9 17 1009.3 1009.2 4.8
17/08:30am 26.4 30.9 25.2 93 0.8 ESE 11 26 6 14 1009.4 1009.3 4.4
17/08:21am 26.6 32.2 25.7 95 0.6 SSE 7 11 4 6 1009.2 1009.1 4.4
17/08:06am 26.3 31.3 25.4 95 0.6 SSE 9 15 5 8 1009.1 1009.0 4.4
17/08:00am 26.3 30.9 25.4 95 0.6 SSE 11 15 6 8 1009.0 1008.9 4.4
17/07:51am 26.2 30.8 25.3 95 0.6 SSE 11 15 6 8 1008.9 1008.8 4.2
17/07:49am 26.2 30.8 25.3 95 0.6 SSE 11 15 6 8 1008.8 1008.7 4.2
17/07:35am 26.0 31.1 25.5 97 0.4 SSE 9 15 5 8 1008.7 1008.6 4.2
17/07:30am 25.8 31.0 25.1 96 0.5 SSE 7 13 4 7 1008.7 1008.6 3.6
17/07:00am 25.6 32.0 24.9 96 0.5 CALM 0 6 0 3 1008.5 1008.4 3.6
17/06:34am 25.4 30.5 24.7 96 0.5 S 6 7 3 4 1008.3 1008.2 3.6
17/06:30am 25.4 30.7 24.9 97 0.3 SSE 6 7 3 4 1008.2 1008.1 3.6
17/06:23am 25.4 30.5 24.9 97 0.3 SSE 7 9 4 5 1008.1 1008.0 3.6
17/06:08am 25.5 30.1 24.8 96 0.5 SSE 9 11 5 6 1007.9 1007.8 3.6
17/06:00am 25.6 30.2 24.7 95 0.6 S 9 13 5 7 1007.8 1007.7 3.4
17/05:57am 25.6 30.2 24.7 95 0.6 SSE 9 13 5 7 1007.8 1007.7 3.4
17/05:34am 25.8 29.5 24.6 93 0.8 SSE 13 17 7 9 1007.4 1007.3 3.4
17/05:30am 25.9 29.8 24.9 94 0.7 SSE 13 20 7 11 1007.3 1007.2 3.4
17/05:00am 25.7 31.0 25.2 97 0.3 SE 7 17 4 9 1006.9 1006.8 3.4
17/04:30am 25.7 31.0 25.0 96 0.5 S 6 7 3 4 1006.9 1006.8 3.4
17/04:21am 25.7 31.0 25.0 96 0.5 SSE 6 7 3 4 1006.9 1006.8 3.4
17/04:18am 25.6 30.9 24.9 96 0.5 SSE 6 7 3 4 1006.9 1006.8 3.4
17/04:07am 25.6 30.8 25.1 97 0.3 SSW 7 11 4 6 1006.9 1006.8 3.4
17/04:00am 25.6 31.7 25.1 97 0.3 SW 2 9 1 5 1006.9 1006.8 3.4
17/03:38am 25.6 31.4 25.1 97 0.3 S 4 6 2 3 1006.8 1006.7 3.4
17/03:30am 25.7 32.3 25.2 97 0.3 CALM 0 6 0 3 1006.9 1006.8 3.4
17/03:00am 25.8 32.4 25.3 97 0.4 CALM 0 0 0 0 1007.0 1006.9 3.4
17/02:30am 25.5 31.8 24.8 96 0.5 CALM 0 0 0 0 1007.4 1007.3 3.4
17/02:00am 25.5 31.7 24.6 95 0.6 CALM 0 0 0 0 1007.6 1007.5 3.2
17/01:54am 25.6 32.0 24.9 96 0.5 CALM 0 0 0 0 1007.7 1007.6 3.2
17/01:30am 25.6 32.0 24.9 96 0.5 CALM 0 0 0 0 1008.0 1007.9 3.2
17/01:00am 25.5 31.8 24.8 96 0.5 CALM 0 0 0 0 1008.3 1008.2 3.2
17/12:30am 25.4 31.7 24.7 96 0.5 CALM 0 0 0 0 1008.7 1008.6 3.2
17/12:00am 25.5 31.8 24.8 96 0.5 CALM 0 0 0 0 1009.1 1009.0 3.2
 
Date/Time
EST
Temp
°C
App
Temp
°C
Dew
Point
°C
Rel
Hum
%
Delta-T
°C
Wind Press
QNH
hPa
Press
MSL
hPa
Rain since
9am
mm
Dir  Spd
km/h
Gust
km/h
Spd
kts
Gust
kts
16/11:37pm 25.6 30.8 25.1 97 0.3 S 7 9 4 5 1009.4 1009.3 3.2
16/11:30pm 25.6 30.8 25.1 97 0.3 S 7 11 4 6 1009.5 1009.4 3.2
16/11:19pm 25.6 30.4 25.1 97 0.3 S 9 13 5 7 1009.6 1009.5 3.2
16/11:00pm 25.7 30.6 25.2 97 0.3 S 9 13 5 7 1009.8 1009.7 2.8
16/10:52pm 25.7 30.4 25.0 96 0.5 S 9 13 5 7 1009.7 1009.6 2.8
16/10:41pm 25.8 30.2 25.1 96 0.5 S 11 15 6 8 1009.7 1009.6 2.8
16/10:31pm 25.9 30.4 25.2 96 0.5 SSE 11 15 6 8 1009.7 1009.6 2.8
16/10:30pm 25.9 30.4 25.2 96 0.5 SSE 11 15 6 8 1009.7 1009.6 2.8
16/10:11pm 26.0 30.6 25.3 96 0.5 S 11 15 6 8 1009.3 1009.2 2.8
16/10:00pm 26.0 31.5 25.3 96 0.5 SSW 6 13 3 7 1009.2 1009.1 2.8
16/09:44pm 26.2 33.0 25.5 96 0.5 CALM 0 0 0 0 1009.0 1008.9 2.8
16/09:42pm 26.1 32.8 25.4 96 0.5 CALM 0 6 0 3 1009.0 1008.9 2.8
16/09:30pm 26.1 31.7 25.4 96 0.5 SSE 6 7 3 4 1008.9 1008.8 2.8
16/09:28pm 26.1 31.7 25.4 96 0.5 S 6 9 3 5 1008.9 1008.8 2.8
16/09:26pm 26.0 31.5 25.3 96 0.5 S 6 9 3 5 1008.9 1008.8 2.8
16/09:01pm 26.2 31.6 25.5 96 0.5 S 7 13 4 7 1008.6 1008.5 2.8
16/09:00pm 26.3 31.8 25.6 96 0.5 S 7 11 4 6 1008.6 1008.5 2.8
16/08:41pm 26.4 33.2 25.5 95 0.6 CALM 0 0 0 0 1008.2 1008.1 2.8
16/08:30pm 26.5 33.3 25.6 95 0.6 CALM 0 0 0 0 1008.1 1008.0 2.8
16/08:25pm 26.6 33.3 25.4 93 0.8 CALM 0 0 0 0 1008.0 1007.9 2.8
16/08:14pm 26.7 32.3 25.5 93 0.8 SE 6 7 3 4 1008.0 1007.9 2.8
16/08:00pm 26.7 32.3 25.5 93 0.8 SSE 6 7 3 4 1008.1 1008.0 2.8
16/07:30pm 26.9 32.3 25.5 92 1.0 SE 7 9 4 5 1007.7 1007.6 2.8
16/07:14pm 27.4 32.5 25.6 90 1.3 SE 9 13 5 7 1007.5 1007.4 2.8
16/07:00pm 27.2 32.5 25.8 92 1.0 ESE 9 11 5 6 1007.2 1007.1 2.8
16/06:30pm 27.3 32.2 25.9 92 1.0 SE 11 15 6 8 1006.6 1006.5 2.8
16/06:07pm 28.3 33.8 25.3 84 2.1 NE 6 9 3 5 1006.2 1006.1 2.6
16/06:00pm 28.3 34.6 25.3 84 2.1 NE 2 7 1 4 1006.2 1006.1 2.6
16/05:30pm 28.1 33.9 25.7 87 1.7 SSW 6 9 3 5 1005.8 1005.7 2.6
16/05:00pm 28.1 33.9 26.1 89 1.4 SSE 7 9 4 5 1005.6 1005.5 2.6
16/04:30pm 27.8 33.4 25.4 87 1.7 ESE 6 7 3 4 1005.6 1005.5 2.6
16/04:00pm 27.0 32.1 26.1 95 0.6 SSE 11 15 6 8 1005.8 1005.7 2.6
16/03:50pm 26.8 31.7 25.8 94 0.7 SSE 11 15 6 8 1006.0 1005.9 2.6
16/03:31pm 26.6 29.7 25.4 93 0.8 SSE 19 26 10 14 1006.0 1005.9 2.4
16/03:30pm 26.6 29.7 25.4 93 0.8 SSE 19 26 10 14 1006.0 1005.9 2.2
16/03:00pm 28.1 31.3 24.9 83 2.2 SSE 17 20 9 11 1006.1 1006.0 1.4
16/02:30pm 28.8 31.7 25.4 82 2.4 SSE 20 32 11 17 1006.1 1006.0 1.4
16/02:00pm 30.9 33.7 24.3 68 4.6 SE 17 24 9 13 1006.3 1006.2 1.4
16/01:30pm 30.5 33.8 25.1 73 3.8 E 17 26 9 14 1006.8 1006.7 1.4
16/01:00pm 30.7 34.2 26.0 76 3.4 ESE 19 30 10 16 1007.2 1007.1 1.4
16/12:30pm 30.4 33.4 25.2 74 3.7 ESE 19 26 10 14 1007.5 1007.4 1.4
16/12:00pm 29.9 33.3 25.2 76 3.3 E 17 20 9 11 1007.8 1007.7 1.4
16/11:30am 29.6 34.4 26.2 82 2.4 E 13 22 7 12 1008.4 1008.3 1.4
16/11:04am 28.9 34.4 26.7 88 1.6 E 11 15 6 8 1008.7 1008.6 1.4
16/11:00am 28.4 33.5 26.2 88 1.6 E 11 15 6 8 1008.8 1008.7 1.4
16/10:58am 28.7 34.3 26.9 90 1.3 E 11 13 6 7 1008.8 1008.7 1.4
16/10:44am 28.2 33.8 25.8 87 1.7 E 7 13 4 7 1009.0 1008.9 1.0
16/10:30am 28.7 34.7 26.3 87 1.7 SE 7 11 4 6 1009.2 1009.1 0.0
16/10:00am 27.8 32.8 26.0 90 1.3 SSE 11 13 6 7 1009.4 1009.3 0.0
16/09:36am 27.4 32.3 25.8 91 1.1 ESE 11 17 6 9 1009.4 1009.3 0.0
16/09:30am 27.2 31.4 24.8 87 1.7 ESE 11 17 6 9 1009.3 1009.2 0.0
16/09:00am 27.3 32.9 25.7 91 1.1 WSW 7 15 4 8 1009.3 1009.2 2.0
16/08:30am 26.5 31.9 25.1 92 1.0 SSW 6 9 3 5 1009.0 1008.9 2.0
16/08:16am 26.3 31.7 25.1 93 0.8 SSW 6 13 3 7 1008.9 1008.8 2.0
16/08:00am 26.4 31.5 25.5 95 0.6 S 9 13 5 7 1009.0 1008.9 2.0
16/07:30am 26.1 31.1 25.4 96 0.5 S 9 13 5 7 1008.9 1008.8 2.0
16/07:28am 26.0 30.9 25.3 96 0.5 S 9 13 5 7 1008.9 1008.8 2.0
16/07:23am 25.9 31.3 25.4 97 0.4 S 7 11 4 6 1008.9 1008.8 2.0
16/07:00am 25.4 30.2 25.1 98 0.2 SSE 9 13 5 7 1008.9 1008.8 1.4
16/06:59am 25.5 30.4 25.2 98 0.2 SSE 9 13 5 7 1008.9 1008.8 1.4
16/06:30am 25.2 30.7 24.7 97 0.3 S 4 7 2 4 1008.5 1008.4 1.4
16/06:00am 25.1 31.3 24.6 97 0.3 CALM 0 0 0 0 1007.7 1007.6 1.4
16/05:35am 25.1 31.2 24.4 96 0.5 CALM 0 0 0 0 1007.4 1007.3 1.4
16/05:30am 25.0 30.8 24.5 97 0.3 SSE 2 6 1 3 1007.3 1007.2 1.4
16/05:24am 25.0 30.0 24.5 97 0.3 SSE 6 7 3 4 1007.2 1007.1 1.4
16/05:12am 25.0 30.0 24.5 97 0.3 SSE 6 7 3 4 1007.1 1007.0 1.4
16/05:00am 24.8 30.4 24.3 97 0.3 SSW 2 9 1 5 1007.0 1006.9 1.4
16/04:56am 24.9 31.1 24.6 98 0.2 CALM 0 0 0 0 1007.0 1006.9 1.4
16/04:30am 24.8 30.9 24.5 98 0.2 CALM 0 0 0 0 1006.4 1006.3 1.4
16/04:00am 24.9 31.0 24.4 97 0.3 CALM 0 0 0 0 1006.4 1006.3 1.4
16/03:30am 25.1 31.2 24.4 96 0.5 CALM 0 0 0 0 1006.5 1006.4 1.4
16/03:00am 25.2 30.8 24.3 95 0.6 SSW 2 7 1 4 1006.7 1006.6 1.4
16/02:30am 25.5 30.3 24.5 94 0.7 SE 7 13 4 7 1007.1 1007.0 1.4
16/02:11am 25.5 31.3 24.6 95 0.6 WSW 2 7 1 4 1007.2 1007.1 1.2
16/02:00am 25.6 32.0 24.9 96 0.5 CALM 0 0 0 0 1007.3 1007.2 1.2
16/01:39am 25.7 32.0 24.8 95 0.6 CALM 0 0 0 0 1007.7 1007.6 1.2
16/01:30am 25.6 32.0 24.9 96 0.5 CALM 0 0 0 0 1007.8 1007.7 1.2
16/01:09am 25.8 32.3 25.1 96 0.5 CALM 0 6 0 3 1008.0 1007.9 1.2
16/01:00am 25.6 31.1 24.7 95 0.6 WNW 4 6 2 3 1008.2 1008.1 1.2
16/12:54am 25.8 31.9 25.1 96 0.5 SW 2 6 1 3 1008.4 1008.3 1.2
16/12:30am 25.6 31.2 24.9 96 0.5 NW 4 6 2 3 1008.6 1008.5 1.2
16/12:00am 25.9 32.6 25.4 97 0.4 CALM 0 0 0 0 1008.8 1008.7 1.2
 
Date/Time
EST
Temp
°C
App
Temp
°C
Dew
Point
°C
Rel
Hum
%
Delta-T
°C
Wind Press
QNH
hPa
Press
MSL
hPa
Rain since
9am
mm
Dir  Spd
km/h
Gust
km/h
Spd
kts
Gust
kts
15/11:30pm 25.9 32.2 25.4 97 0.4 N 2 6 1 3 1009.1 1009.0 1.2
15/11:00pm 26.1 32.8 25.4 96 0.5 CALM 0 0 0 0 1009.3 1009.2 1.2
15/10:30pm 26.3 33.1 25.6 96 0.5 CALM 0 0 0 0 1009.2 1009.1 1.2
15/10:00pm 26.1 32.8 25.4 96 0.5 CALM 0 0 0 0 1009.3 1009.2 1.2
15/09:30pm 26.0 32.6 25.3 96 0.5 CALM 0 2 0 1 1009.0 1008.9 1.2
15/09:00pm 26.0 32.1 25.0 94 0.7 NNW 2 6 1 3 1008.8 1008.7 1.2
15/08:51pm 25.9 31.4 24.7 93 0.8 NNW 4 7 2 4 1008.6 1008.5 1.2
15/08:30pm 26.0 32.5 25.0 94 0.7 CALM 0 0 0 0 1008.4 1008.3 1.2
15/08:09pm 26.5 32.6 24.5 89 1.4 CALM 0 0 0 0 1008.2 1008.1 1.2
15/08:03pm 26.5 32.1 24.3 88 1.5 NE 2 7 1 4 1008.2 1008.1 1.0
15/08:00pm 26.4 31.2 24.1 87 1.6 NE 6 7 3 4 1008.2 1008.1 1.0
15/07:49pm 26.6 30.6 23.7 84 2.0 E 9 22 5 12 1008.0 1007.9 1.0
15/07:30pm 27.8 32.6 24.4 82 2.4 ESE 7 9 4 5 1007.7 1007.6 0.2
15/07:00pm 28.3 31.7 24.1 78 2.9 SE 13 20 7 11 1007.5 1007.4 0.2
15/06:30pm 28.9 33.2 24.9 79 2.8 SE 11 17 6 9 1007.2 1007.1 0.2
15/06:00pm 28.8 32.9 24.6 78 2.9 E 11 17 6 9 1006.9 1006.8 0.2
15/05:30pm 29.6 32.6 24.0 72 3.9 ESE 15 20 8 11 1006.4 1006.3 0.2
15/05:00pm 29.5 32.6 24.1 72 3.8 E 15 20 8 11 1006.1 1006.0 0.2
15/04:30pm 29.6 33.0 24.7 75 3.4 ENE 15 22 8 12 1005.9 1005.8 0.2
15/04:00pm 30.5 34.5 25.1 73 3.8 E 13 20 7 11 1006.1 1006.0 0.2
15/03:30pm 30.0 32.9 23.9 70 4.2 ENE 15 22 8 12 1006.1 1006.0 0.2
15/03:00pm 30.7 33.8 24.8 71 4.2 E 17 26 9 14 1006.1 1006.0 0.2
15/02:30pm 30.7 33.0 24.1 68 4.6 E 19 24 10 13 1006.6 1006.5 0.2
15/02:00pm 30.8 33.1 24.4 68 4.5 E 20 28 11 15 1006.7 1006.6 0.2
15/01:30pm 30.8 33.4 24.0 67 4.7 ENE 17 24 9 13 1006.8 1006.7 0.2
15/01:00pm 30.4 33.7 23.8 68 4.6 ENE 13 26 7 14 1007.2 1007.1 0.2
15/12:30pm 30.9 34.4 24.8 70 4.3 ESE 15 24 8 13 1007.4 1007.3 0.2
15/12:00pm 31.3 35.2 24.9 69 4.5 ENE 13 19 7 10 1007.9 1007.8 0.2
15/11:30am 30.7 35.5 24.4 69 4.4 SE 7 13 4 7 1008.3 1008.2 0.2
15/11:00am 29.6 35.2 25.8 80 2.7 NNW 7 11 4 6 1008.8 1008.7 0.0
15/10:30am 28.3 32.6 24.9 82 2.4 WSW 11 13 6 7 1009.1 1009.0 0.0
15/10:00am 28.6 33.0 24.4 78 2.9 SSW 9 13 5 7 1009.3 1009.2 0.0
15/09:30am 28.8 33.6 24.4 77 3.1 S 7 13 4 7 1009.4 1009.3 0.0
15/09:00am 28.4 34.5 24.4 79 2.8 CALM 0 0 0 0 1009.6 1009.5 0.0
15/08:30am 27.2 32.6 23.9 82 2.3 SW 2 9 1 5 1009.6 1009.5 0.0
15/08:00am 25.7 31.8 24.5 93 0.8 CALM 0 0 0 0 1009.5 1009.4 0.0
15/07:30am 24.9 31.0 24.4 97 0.3 CALM 0 0 0 0 1009.4 1009.3 0.0
15/07:00am 24.4 30.3 24.1 98 0.2 CALM 0 0 0 0 1009.1 1009.0 0.0
15/06:30am 24.1 29.8 23.8 98 0.2 CALM 0 0 0 0 1008.8 1008.7 0.0
15/06:00am 24.0 29.7 23.7 98 0.2 CALM 0 0 0 0 1008.6 1008.5 0.0
15/05:30am 23.9 29.5 23.6 98 0.2 CALM 0 0 0 0 1008.2 1008.1 0.0
15/05:00am 23.6 28.9 23.1 97 0.3 CALM 0 0 0 0 1007.7 1007.6 0.0
15/04:45am 23.5 28.9 23.2 98 0.2 CALM 0 0 0 0 1007.7 1007.6 0.0
15/04:30am 23.7 29.2 23.4 98 0.2 CALM 0 0 0 0 1007.5 1007.4 0.0
15/04:06am 23.4 28.7 23.1 98 0.2 CALM 0 0 0 0 1007.5 1007.4 0.0
15/04:00am 23.2 28.4 22.9 98 0.2 CALM 0 0 0 0 1007.4 1007.3 0.0
15/03:30am 23.3 28.6 23.0 98 0.2 CALM 0 0 0 0 1007.6 1007.5 0.0
15/03:00am 23.4 27.3 22.9 97 0.3 WNW 7 11 4 6 1007.7 1007.6 0.0
15/02:30am 23.7 29.1 23.2 97 0.3 CALM 0 0 0 0 1007.6 1007.5 0.0
15/02:00am 23.7 29.1 23.2 97 0.3 CALM 0 0 0 0 1007.8 1007.7 0.0
15/01:30am 23.7 29.1 23.2 97 0.3 CALM 0 0 0 0 1008.0 1007.9 0.0
15/01:00am 23.8 29.2 23.3 97 0.3 CALM 0 0 0 0 1008.4 1008.3 0.0
15/12:30am 24.1 29.6 23.4 96 0.5 CALM 0 0 0 0 1008.6 1008.5 0.0
15/12:00am 24.3 29.9 23.6 96 0.5 CALM 0 0 0 0 1008.8 1008.7 0.0
 
Date/Time
EST
Temp
°C
App
Temp
°C
Dew
Point
°C
Rel
Hum
%
Delta-T
°C
Wind Press
QNH
hPa
Press
MSL
hPa
Rain since
9am
mm
Dir  Spd
km/h
Gust
km/h
Spd
kts
Gust
kts
14/11:30pm 24.5 30.2 23.8 96 0.5 CALM 0 0 0 0 1008.9 1008.8 0.0
14/11:00pm 24.6 30.3 23.7 95 0.6 CALM 0 0 0 0 1009.3 1009.2 0.0
14/10:30pm 24.6 30.3 23.7 95 0.6 CALM 0 0 0 0 1009.1 1009.0 0.0
14/10:00pm 24.7 29.7 23.8 95 0.6 NE 4 7 2 4 1008.8 1008.7 0.0
14/09:30pm 24.8 30.5 23.8 94 0.7 CALM 0 0 0 0 1008.7 1008.6 0.0

Other Formats:

Comma delimited format used in spreadsheet applications
http://www.bom.gov.au/fwo/IDQ60801/IDQ60801.94186.axf

JavaScript Object Notation format (JSON) in row-major order
http://www.bom.gov.au/fwo/IDQ60801/IDQ60801.94186.json